Terminal Aerodrome Forecast
Issued by NWS

Home | Current Version | Previous Version | Text Only | Print | Product List | Glossary On
Versions: 1 2 3 4 5 6 7 8 9 10 11 12 13 14 15 16 17 18 19 20 21 22 23 24 25 26
000
FTUS46 KSEW 162320
TAFOLM
TAF
KOLM 162320Z 1700/1724 22006KT P6SM SCT040 BKN200
     FM170400 VRB06KT P6SM SCT200
     FM170900 20005KT P6SM BKN015
     FM171100 21004KT P6SM OVC010
     FM172100 25005KT P6SM SCT020 SCT050 BKN200=

USA.gov is the U.S. government's official web portal to all federal, state and local government web resources and services.